Time;durP1;ratioP1;P1;durP2;ratioP2;P2;SDS_P1;SDS_P2;PMS_P1;PMS_P2;Temp;Humidity;BMP_temperature;BMP_pressure;BME280_temperature;BME280_humidity;BME280_pressure;Samples;Min_cycle;Max_cycle;Signal;HPM_P1;HPM_P2
2022/04/09 00:02:22;;;;;;;15.48;3.25;;;4.70;99.90;;;;;;5055394;28;20494;-57
2022/04/09 00:04:47;;;;;;;13.25;3.30;;;4.70;99.90;;;;;;5055341;28;20009;-57
2022/04/09 00:07:14;;;;;;;14.82;4.00;;;4.70;99.90;;;;;;5055239;28;20025;-57
2022/04/09 00:09:39;;;;;;;18.00;3.40;;;4.70;99.90;;;;;;5054882;28;20402;-57
2022/04/09 00:12:06;;;;;;;15.73;3.97;;;4.70;99.90;;;;;;5054790;28;20445;-57
2022/04/09 00:14:31;;;;;;;11.38;2.70;;;4.70;99.90;;;;;;5054338;28;20025;-56
2022/04/09 00:16:57;;;;;;;15.40;3.30;;;4.70;99.90;;;;;;5054792;28;20086;-56
2022/04/09 00:19:23;;;;;;;14.68;3.03;;;4.60;99.90;;;;;;5053741;28;20098;-56
2022/04/09 00:21:49;;;;;;;15.85;2.67;;;4.60;99.90;;;;;;5053035;28;20049;-56
2022/04/09 00:24:15;;;;;;;11.07;3.05;;;4.60;99.90;;;;;;5054584;28;20505;-56
2022/04/09 00:26:41;;;;;;;12.05;3.08;;;4.70;99.90;;;;;;5054478;28;20025;-56
2022/04/09 00:29:06;;;;;;;13.20;2.78;;;4.70;99.90;;;;;;5053652;28;20055;-56
2022/04/09 00:31:32;;;;;;;13.65;3.42;;;4.70;99.90;;;;;;5053879;28;20029;-56
2022/04/09 00:33:59;;;;;;;11.95;3.13;;;4.70;99.90;;;;;;5053900;28;20028;-56
2022/04/09 00:36:24;;;;;;;13.98;3.28;;;4.70;99.90;;;;;;5054015;28;20027;-56
2022/04/09 00:38:51;;;;;;;16.60;3.20;;;4.60;99.90;;;;;;5053878;28;20021;-57
2022/04/09 00:41:17;;;;;;;12.50;2.85;;;4.60;99.90;;;;;;5053794;28;20508;-56
2022/04/09 00:43:43;;;;;;;17.38;2.88;;;4.60;99.90;;;;;;5053988;28;20100;-56
2022/04/09 00:46:13;;;;;;;13.27;3.22;;;4.70;99.90;;;;;;5053445;28;20047;-56
2022/04/09 00:48:41;;;;;;;13.40;3.00;;;4.70;99.90;;;;;;5054141;28;20052;-56
2022/04/09 00:51:07;;;;;;;20.25;3.33;;;4.80;99.90;;;;;;5053430;28;20021;-56
2022/04/09 00:53:35;;;;;;;14.30;2.83;;;4.80;99.90;;;;;;5054087;28;20044;-56
2022/04/09 00:56:20;;;;;;;12.95;3.10;;;4.80;99.90;;;;;;5053687;28;20013;-56
2022/04/09 00:58:55;;;;;;;17.83;3.70;;;4.80;99.90;;;;;;5053470;28;20029;-56
2022/04/09 01:01:33;;;;;;;21.40;3.83;;;4.80;99.90;;;;;;5052916;28;20021;-56
2022/04/09 01:03:59;;;;;;;14.52;3.00;;;4.80;99.90;;;;;;5053100;28;20249;-56
2022/04/09 01:06:25;;;;;;;17.17;3.30;;;4.80;99.90;;;;;;5053707;28;20408;-56
2022/04/09 01:08:51;;;;;;;15.50;3.10;;;4.70;99.90;;;;;;5053677;28;20029;-56
2022/04/09 01:11:17;;;;;;;12.23;3.30;;;4.60;99.90;;;;;;5053247;28;20486;-56
2022/04/09 01:13:46;;;;;;;13.35;3.33;;;4.60;99.90;;;;;;5053906;28;20025;-56
2022/04/09 01:16:12;;;;;;;21.52;4.03;;;4.60;99.90;;;;;;5053260;28;20296;-56
2022/04/09 01:18:41;;;;;;;13.18;3.78;;;4.60;99.90;;;;;;5053393;28;20067;-56
2022/04/09 01:21:07;;;;;;;15.68;3.83;;;4.50;99.90;;;;;;5053117;28;20013;-56
2022/04/09 01:23:33;;;;;;;17.63;4.05;;;4.40;99.90;;;;;;5052604;28;20039;-56
2022/04/09 01:26:00;;;;;;;12.82;3.55;;;4.40;99.90;;;;;;5053529;28;20061;-56
2022/04/09 01:28:26;;;;;;;18.95;3.80;;;4.30;99.90;;;;;;5052822;28;20017;-56
2022/04/09 01:30:53;;;;;;;15.82;4.20;;;4.30;99.90;;;;;;5052343;28;20033;-56
2022/04/09 01:33:19;;;;;;;13.52;3.60;;;4.30;99.90;;;;;;5053344;28;20485;-56
2022/04/09 01:35:45;;;;;;;16.73;3.55;;;4.30;99.90;;;;;;5053018;28;20036;-56
2022/04/09 01:38:11;;;;;;;26.52;4.15;;;4.20;99.90;;;;;;5052643;28;20017;-56
2022/04/09 01:40:37;;;;;;;21.17;4.75;;;4.20;99.90;;;;;;5051958;28;20035;-57
2022/04/09 01:43:03;;;;;;;17.13;3.83;;;4.10;99.90;;;;;;5052960;28;20029;-57
2022/04/09 01:45:28;;;;;;;20.98;4.47;;;4.10;99.90;;;;;;5052750;28;20113;-57
2022/04/09 01:47:55;;;;;;;16.17;3.97;;;4.20;99.90;;;;;;5051295;28;20029;-57
2022/04/09 01:50:21;;;;;;;19.02;4.30;;;4.20;99.90;;;;;;5053110;28;20032;-57
2022/04/09 01:52:47;;;;;;;15.52;3.80;;;4.20;99.90;;;;;;5053125;28;20068;-57
2022/04/09 01:55:14;;;;;;;16.83;3.85;;;4.10;99.90;;;;;;5051432;28;20024;-56
2022/04/09 01:57:40;;;;;;;21.08;5.05;;;4.10;99.90;;;;;;5051746;28;20522;-56
2022/04/09 02:00:10;;;;;;;21.05;4.10;;;4.10;99.90;;;;;;5051908;28;20025;-56
2022/04/09 02:02:35;;;;;;;18.20;4.55;;;4.10;99.90;;;;;;5052640;28;20680;-57
2022/04/09 02:05:02;;;;;;;14.88;3.78;;;4.10;99.90;;;;;;5051885;28;20116;-57
2022/04/09 02:07:28;;;;;;;19.92;4.15;;;4.20;99.90;;;;;;5052787;28;20082;-57
2022/04/09 02:09:54;;;;;;;25.80;5.30;;;4.10;99.90;;;;;;5051585;28;20465;-57
2022/04/09 02:12:20;;;;;;;16.90;4.78;;;4.10;99.90;;;;;;5052506;28;20021;-57
2022/04/09 02:14:45;;;;;;;20.60;5.05;;;4.10;99.90;;;;;;5052518;28;20115;-57
2022/04/09 02:17:12;;;;;;;16.05;4.35;;;4.10;99.90;;;;;;5052045;28;20036;-57
2022/04/09 02:19:38;;;;;;;22.52;4.38;;;4.10;99.90;;;;;;5051115;28;20918;-57
2022/04/09 02:22:05;;;;;;;26.67;5.32;;;4.10;99.90;;;;;;5052312;28;20429;-56
2022/04/09 02:24:31;;;;;;;18.77;4.80;;;4.10;99.90;;;;;;5051737;28;20559;-56
2022/04/09 02:26:56;;;;;;;21.25;4.82;;;4.00;99.90;;;;;;5051801;28;20082;-56
2022/04/09 02:29:22;;;;;;;19.35;4.47;;;4.00;99.90;;;;;;5051926;28;20029;-56
2022/04/09 02:31:48;;;;;;;18.67;4.80;;;4.10;99.90;;;;;;5051897;28;20033;-56
2022/04/09 02:34:14;;;;;;;17.52;5.25;;;4.10;99.90;;;;;;5051836;28;20478;-56
2022/04/09 02:36:39;;;;;;;23.10;4.10;;;4.00;99.90;;;;;;5051961;28;20433;-56
2022/04/09 02:39:05;;;;;;;21.45;4.75;;;4.00;99.90;;;;;;5051591;28;20099;-56
2022/04/09 02:41:31;;;;;;;23.33;5.68;;;4.00;99.90;;;;;;5051634;28;20116;-56
2022/04/09 02:43:57;;;;;;;21.42;4.78;;;4.00;99.90;;;;;;5051938;28;20542;-56
2022/04/09 02:46:24;;;;;;;27.23;5.22;;;4.00;99.90;;;;;;5051310;28;20083;-56
2022/04/09 02:48:50;;;;;;;19.80;3.75;;;3.90;99.90;;;;;;5051914;28;20037;-56
2022/04/09 02:51:16;;;;;;;14.40;4.32;;;3.90;99.90;;;;;;5050961;28;20040;-56
2022/04/09 02:53:41;;;;;;;15.77;4.20;;;3.90;99.90;;;;;;5051748;28;20031;-56
2022/04/09 02:56:07;;;;;;;20.77;5.00;;;3.90;99.90;;;;;;5050081;28;20049;-56
2022/04/09 02:58:33;;;;;;;15.68;4.40;;;3.90;99.90;;;;;;5051390;28;20021;-56
2022/04/09 03:00:58;;;;;;;24.20;4.82;;;3.90;99.90;;;;;;5051487;28;20022;-57
2022/04/09 03:03:24;;;;;;;21.20;5.00;;;3.90;99.90;;;;;;5051483;28;20486;-57
2022/04/09 03:05:49;;;;;;;22.13;5.15;;;3.90;99.90;;;;;;5051149;28;20028;-57
2022/04/09 03:08:15;;;;;;;23.65;4.80;;;3.90;99.90;;;;;;5051212;28;20466;-57
2022/04/09 03:10:41;;;;;;;20.83;5.22;;;3.80;99.90;;;;;;5050546;28;20108;-56
2022/04/09 03:13:07;;;;;;;17.30;4.90;;;3.80;99.90;;;;;;5050904;28;20497;-57
2022/04/09 03:15:33;;;;;;;21.13;4.95;;;3.80;99.90;;;;;;5051171;28;20025;-57
2022/04/09 03:17:59;;;;;;;21.77;4.90;;;3.80;99.90;;;;;;5050826;28;20563;-56
2022/04/09 03:20:24;;;;;;;26.88;4.55;;;3.70;99.90;;;;;;5051152;28;20025;-56
2022/04/09 03:22:50;;;;;;;21.25;4.32;;;3.80;99.90;;;;;;5051534;28;20048;-56
2022/04/09 03:25:16;;;;;;;21.48;4.60;;;3.70;99.90;;;;;;5049996;28;20490;-56
2022/04/09 03:27:42;;;;;;;23.23;4.60;;;3.70;99.90;;;;;;5051274;28;20025;-56
2022/04/09 03:30:09;;;;;;;23.10;4.53;;;3.70;99.90;;;;;;5050771;28;20029;-56
2022/04/09 03:32:39;;;;;;;16.38;4.15;;;3.70;99.90;;;;;;5051030;28;20027;-56
2022/04/09 03:35:05;;;;;;;20.83;4.32;;;3.70;99.90;;;;;;5050785;28;20029;-56
2022/04/09 03:37:34;;;;;;;20.10;4.47;;;3.70;99.90;;;;;;5050506;28;20059;-55
2022/04/09 03:39:59;;;;;;;16.73;3.88;;;3.70;99.90;;;;;;5051108;28;20021;-55
2022/04/09 03:42:25;;;;;;;19.73;4.25;;;3.80;99.90;;;;;;5051363;28;20071;-55
2022/04/09 03:44:50;;;;;;;27.60;4.65;;;3.70;99.90;;;;;;5051361;28;20067;-55
2022/04/09 03:47:16;;;;;;;28.52;4.90;;;3.80;99.90;;;;;;5051128;28;20017;-56
2022/04/09 03:49:42;;;;;;;22.67;4.28;;;3.80;99.90;;;;;;5051023;28;20033;-56
2022/04/09 03:52:07;;;;;;;21.60;4.57;;;3.90;99.90;;;;;;5050944;28;20025;-56
2022/04/09 03:54:35;;;;;;;20.83;4.30;;;3.90;99.90;;;;;;5050704;28;20025;-56
2022/04/09 03:57:01;;;;;;;19.05;4.22;;;3.90;99.90;;;;;;5050904;28;20024;-56
2022/04/09 03:59:27;;;;;;;22.92;4.50;;;3.90;99.90;;;;;;5050960;28;20013;-56
2022/04/09 04:01:53;;;;;;;24.92;4.97;;;3.80;99.90;;;;;;5050972;28;20021;-56
2022/04/09 04:04:19;;;;;;;18.63;5.00;;;3.80;99.90;;;;;;5051249;28;20021;-56
2022/04/09 04:06:45;;;;;;;26.33;5.45;;;3.90;99.90;;;;;;5048761;28;20040;-56
2022/04/09 04:09:12;;;;;;;19.77;4.28;;;3.90;99.90;;;;;;5050844;28;20383;-56
2022/04/09 04:11:38;;;;;;;27.92;5.35;;;3.90;99.90;;;;;;5049817;28;20037;-56
2022/04/09 04:14:04;;;;;;;23.58;4.38;;;3.90;99.90;;;;;;5049863;28;20544;-56
2022/04/09 04:16:30;;;;;;;25.50;4.72;;;3.90;99.90;;;;;;5051149;28;20109;-56
2022/04/09 04:18:56;;;;;;;24.65;4.32;;;3.90;99.90;;;;;;5050750;28;20454;-56
2022/04/09 04:21:21;;;;;;;17.75;4.75;;;3.90;99.90;;;;;;5050431;28;20378;-56
2022/04/09 04:23:47;;;;;;;23.80;4.47;;;3.90;99.90;;;;;;5048978;28;20033;-56
2022/04/09 04:26:12;;;;;;;26.17;5.10;;;3.90;99.90;;;;;;5050504;28;20052;-56
2022/04/09 04:28:38;;;;;;;20.95;5.05;;;3.90;99.90;;;;;;5050703;28;20533;-56
2022/04/09 04:31:04;;;;;;;22.25;5.05;;;3.80;99.90;;;;;;5049366;28;20029;-56
2022/04/09 04:33:32;;;;;;;28.13;4.93;;;3.80;99.90;;;;;;5053280;28;20295;-56
2022/04/09 04:35:57;;;;;;;20.30;4.38;;;3.80;99.90;;;;;;5053880;28;20079;-56
2022/04/09 04:38:24;;;;;;;19.67;4.35;;;3.80;99.90;;;;;;5054166;28;20028;-56
2022/04/09 04:40:51;;;;;;;22.95;4.82;;;3.80;99.90;;;;;;5054450;28;20068;-56
2022/04/09 04:43:16;;;;;;;22.50;4.55;;;3.80;99.90;;;;;;5054032;28;20021;-56
2022/04/09 04:45:42;;;;;;;26.25;4.60;;;3.80;99.90;;;;;;5053509;28;20159;-56
2022/04/09 04:48:08;;;;;;;22.23;4.63;;;3.80;99.90;;;;;;5051460;28;20032;-56
2022/04/09 04:50:36;;;;;;;23.67;5.68;;;3.80;99.90;;;;;;5053326;28;20036;-56
2022/04/09 04:53:02;;;;;;;26.33;5.03;;;3.80;99.90;;;;;;5051552;28;20343;-56
2022/04/09 04:55:28;;;;;;;19.85;4.88;;;3.80;99.90;;;;;;5053285;28;20413;-56
2022/04/09 04:57:55;;;;;;;21.77;4.70;;;3.80;99.90;;;;;;5053367;28;20056;-56
2022/04/09 05:00:24;;;;;;;21.95;4.78;;;3.80;99.90;;;;;;5053291;28;20024;-56
2022/04/09 05:02:51;;;;;;;22.38;5.10;;;3.80;99.90;;;;;;5053623;28;20029;-56
2022/04/09 05:05:18;;;;;;;23.83;4.32;;;3.80;99.90;;;;;;5053559;28;20113;-56
2022/04/09 05:07:49;;;;;;;20.38;4.93;;;3.70;99.90;;;;;;5053528;28;20029;-56
2022/04/09 05:10:23;;;;;;;26.55;4.93;;;3.70;99.90;;;;;;5053555;28;20079;-56
2022/04/09 05:12:49;;;;;;;22.00;4.97;;;3.70;99.90;;;;;;5053395;28;20475;-56
2022/04/09 05:15:16;;;;;;;30.52;5.20;;;3.80;99.90;;;;;;5053601;28;20023;-56
2022/04/09 05:17:43;;;;;;;22.25;4.90;;;3.80;99.90;;;;;;5053039;28;20025;-56
2022/04/09 05:20:16;;;;;;;24.75;5.10;;;3.80;99.90;;;;;;5053146;28;20083;-57
2022/04/09 05:22:49;;;;;;;23.08;4.55;;;3.80;99.90;;;;;;5052193;28;20048;-57
2022/04/09 05:25:19;;;;;;;20.48;4.00;;;3.80;99.90;;;;;;5053059;28;20021;-56
2022/04/09 05:27:46;;;;;;;24.92;5.18;;;3.90;99.90;;;;;;5053068;28;20451;-56
2022/04/09 05:30:12;;;;;;;21.10;4.80;;;3.90;99.90;;;;;;5053145;28;20108;-56
2022/04/09 05:32:39;;;;;;;23.65;5.22;;;3.90;99.90;;;;;;5053437;28;20100;-56
2022/04/09 05:35:05;;;;;;;25.05;4.55;;;3.90;99.90;;;;;;5052565;28;20437;-56
2022/04/09 05:37:31;;;;;;;21.80;4.50;;;4.00;99.90;;;;;;5052642;28;20053;-56
2022/04/09 05:39:57;;;;;;;18.15;3.88;;;4.00;99.90;;;;;;5052726;28;20063;-56
2022/04/09 05:42:24;;;;;;;19.58;4.20;;;4.00;99.90;;;;;;5052960;28;20087;-56
2022/04/09 05:44:50;;;;;;;20.38;4.30;;;4.00;99.90;;;;;;5052198;28;20021;-56
2022/04/09 05:47:15;;;;;;;20.48;4.53;;;4.00;99.90;;;;;;5053128;28;20017;-56
2022/04/09 05:49:41;;;;;;;25.60;5.50;;;4.10;99.90;;;;;;5052511;28;20389;-56
2022/04/09 05:52:07;;;;;;;19.13;4.85;;;4.10;99.90;;;;;;5052927;28;20070;-56
2022/04/09 05:54:32;;;;;;;21.70;5.22;;;4.20;99.90;;;;;;5051278;28;20029;-56
2022/04/09 05:56:59;;;;;;;18.35;4.15;;;4.20;99.90;;;;;;5052659;28;20032;-57
2022/04/09 05:59:26;;;;;;;20.10;4.43;;;4.20;99.90;;;;;;5052385;28;20394;-56
2022/04/09 06:01:52;;;;;;;18.45;4.10;;;4.20;99.90;;;;;;5052146;28;20029;-56
2022/04/09 06:04:20;;;;;;;21.45;4.40;;;4.40;99.90;;;;;;5052458;28;20417;-56
2022/04/09 06:06:46;;;;;;;19.73;4.65;;;4.50;99.90;;;;;;5034496;28;20025;-56
2022/04/09 06:09:12;;;;;;;20.23;4.70;;;4.50;99.90;;;;;;5052396;28;20033;-56
2022/04/09 06:11:38;;;;;;;18.55;4.30;;;4.60;99.90;;;;;;5052388;28;20028;-56
2022/04/09 06:14:04;;;;;;;22.38;4.53;;;4.70;99.90;;;;;;5052592;28;20099;-57
2022/04/09 06:16:35;;;;;;;19.88;4.65;;;4.70;99.90;;;;;;5053143;28;20044;-57
2022/04/09 06:19:00;;;;;;;18.52;4.57;;;4.80;99.90;;;;;;5052304;28;20017;-57
2022/04/09 06:21:29;;;;;;;15.07;3.80;;;4.80;99.90;;;;;;5050753;28;20359;-56
2022/04/09 06:23:56;;;;;;;21.25;4.47;;;4.80;99.90;;;;;;5051752;28;20506;-56
2022/04/09 06:26:22;;;;;;;16.75;4.95;;;5.00;99.90;;;;;;5052230;28;20527;-56
2022/04/09 06:28:47;;;;;;;17.50;4.20;;;5.00;99.90;;;;;;5051579;28;20025;-56
2022/04/09 06:31:13;;;;;;;23.80;4.20;;;5.10;99.90;;;;;;5052254;28;20071;-56
2022/04/09 06:33:39;;;;;;;16.85;4.18;;;5.10;99.90;;;;;;5051722;28;20036;-56
2022/04/09 06:36:04;;;;;;;22.33;4.55;;;5.10;99.90;;;;;;5051865;28;20029;-56
2022/04/09 06:38:33;;;;;;;22.23;4.28;;;5.20;99.90;;;;;;5051716;28;20521;-56
2022/04/09 06:40:59;;;;;;;23.58;4.70;;;5.30;99.90;;;;;;5051560;28;20570;-56
2022/04/09 06:43:26;;;;;;;21.88;4.90;;;5.30;99.90;;;;;;5053370;28;20052;-57
2022/04/09 06:45:52;;;;;;;20.60;5.18;;;5.40;99.90;;;;;;5051881;28;20452;-56
2022/04/09 06:48:17;;;;;;;19.90;5.30;;;5.50;99.90;;;;;;5051735;28;20120;-56
2022/04/09 06:50:43;;;;;;;20.85;5.15;;;5.60;99.90;;;;;;5051183;28;20063;-56
2022/04/09 06:53:09;;;;;;;27.63;4.82;;;5.70;99.90;;;;;;5051472;28;20021;-56
2022/04/09 06:55:35;;;;;;;18.25;4.40;;;5.80;99.90;;;;;;5051164;28;20025;-56
2022/04/09 06:58:02;;;;;;;26.33;4.05;;;5.90;99.90;;;;;;5051841;28;20139;-57
2022/04/09 07:00:28;;;;;;;20.50;4.05;;;6.10;99.90;;;;;;5051532;28;20496;-57
2022/04/09 07:02:54;;;;;;;17.30;4.82;;;6.30;99.90;;;;;;5050006;28;20048;-55
2022/04/09 07:05:20;;;;;;;22.15;4.30;;;6.40;99.90;;;;;;5051097;28;20056;-58
2022/04/09 07:07:50;;;;;;;21.00;4.80;;;6.50;99.90;;;;;;5049163;28;20025;-57
2022/04/09 07:10:16;;;;;;;25.50;5.00;;;6.60;99.90;;;;;;5049138;28;20032;-57
2022/04/09 07:12:42;;;;;;;20.42;4.85;;;6.70;99.90;;;;;;5050936;28;20033;-57
2022/04/09 07:15:08;;;;;;;20.92;4.80;;;6.70;99.90;;;;;;5051081;28;20075;-57
2022/04/09 07:17:34;;;;;;;17.27;4.75;;;6.80;99.90;;;;;;5051020;28;20029;-57
2022/04/09 07:20:01;;;;;;;19.98;4.43;;;6.80;99.90;;;;;;5051233;28;20099;-57
2022/04/09 07:22:27;;;;;;;20.67;4.43;;;6.80;99.90;;;;;;5051068;28;20052;-57
2022/04/09 07:24:54;;;;;;;15.63;4.55;;;6.90;99.90;;;;;;5051022;28;20037;-57
2022/04/09 07:27:20;;;;;;;14.88;4.15;;;7.00;99.90;;;;;;5051052;28;20049;-58
2022/04/09 07:29:47;;;;;;;14.80;4.18;;;7.10;99.90;;;;;;5051008;28;20359;-57
2022/04/09 07:32:12;;;;;;;18.17;4.55;;;7.10;99.90;;;;;;5051207;28;20028;-56
2022/04/09 07:34:38;;;;;;;15.30;3.97;;;7.70;99.90;;;;;;5050456;28;20025;-57
2022/04/09 07:37:04;;;;;;;13.80;3.60;;;8.70;99.90;;;;;;5048652;28;20025;-57
2022/04/09 07:39:30;;;;;;;16.20;3.50;;;9.70;99.90;;;;;;5049435;28;20466;-57
2022/04/09 07:41:56;;;;;;;13.07;3.22;;;11.20;99.90;;;;;;5049802;28;20021;-57
2022/04/09 07:44:22;;;;;;;15.15;4.03;;;11.90;99.90;;;;;;5048370;28;20036;-58
2022/04/09 07:46:48;;;;;;;13.82;3.58;;;12.50;99.90;;;;;;5049354;28;20079;-58
2022/04/09 07:49:15;;;;;;;12.63;3.63;;;12.80;99.90;;;;;;5048018;28;20021;-58
2022/04/09 07:51:40;;;;;;;13.30;3.33;;;13.30;99.90;;;;;;5049309;28;20067;-58
2022/04/09 07:54:06;;;;;;;15.43;3.70;;;13.40;99.90;;;;;;5049538;28;20115;-58
2022/04/09 07:56:32;;;;;;;16.15;3.83;;;13.10;99.90;;;;;;5049664;28;20021;-58
2022/04/09 07:58:58;;;;;;;13.07;3.38;;;13.20;99.90;;;;;;5049450;28;20124;-58
2022/04/09 08:01:23;;;;;;;10.98;3.35;;;13.70;99.90;;;;;;5049100;28;20493;-58
2022/04/09 08:03:49;;;;;;;12.45;3.70;;;14.00;99.90;;;;;;5049295;28;20493;-58
2022/04/09 08:06:15;;;;;;;12.25;3.55;;;13.90;99.90;;;;;;5050260;28;20151;-58
2022/04/09 08:08:41;;;;;;;12.95;3.53;;;13.80;99.90;;;;;;5053274;28;20120;-58
2022/04/09 08:11:06;;;;;;;11.00;3.65;;;14.20;99.90;;;;;;5053432;28;20530;-57
2022/04/09 08:13:33;;;;;;;11.07;3.60;;;14.70;99.90;;;;;;5053393;28;20415;-57
2022/04/09 08:15:59;;;;;;;10.23;3.75;;;14.50;99.90;;;;;;5053037;28;20021;-57
2022/04/09 08:18:25;;;;;;;9.68;3.85;;;15.00;99.90;;;;;;5051702;28;20025;-57
2022/04/09 08:20:52;;;;;;;9.77;3.50;;;15.00;99.60;;;;;;5053300;28;20032;-57
2022/04/09 08:23:18;;;;;;;12.00;4.13;;;14.90;99.90;;;;;;5053022;28;20059;-57
2022/04/09 08:25:43;;;;;;;13.27;4.32;;;14.30;99.90;;;;;;5053311;28;20029;-59
2022/04/09 08:28:09;;;;;;;13.85;4.35;;;14.70;99.90;;;;;;5053571;28;20116;-57
2022/04/09 08:30:36;;;;;;;10.90;4.00;;;14.40;99.90;;;;;;5052662;28;20035;-57
2022/04/09 08:33:05;;;;;;;7.07;3.80;;;13.50;99.90;;;;;;5052963;28;20025;-57
2022/04/09 08:35:31;;;;;;;8.65;3.80;;;13.60;99.90;;;;;;5052890;28;20025;-56
2022/04/09 08:37:57;;;;;;;11.65;4.57;;;14.10;99.90;;;;;;5053429;28;20393;-60
2022/04/09 08:40:24;;;;;;;11.07;3.42;;;14.90;99.70;;;;;;5052677;28;20116;-57
2022/04/09 08:42:50;;;;;;;9.40;3.72;;;15.10;99.60;;;;;;5053144;28;20017;-56
2022/04/09 08:45:16;;;;;;;12.25;3.83;;;15.20;99.20;;;;;;5052592;28;20021;-57
2022/04/09 08:47:43;;;;;;;10.85;3.15;;;15.80;98.50;;;;;;5052505;28;20029;-57
2022/04/09 08:50:14;;;;;;;8.57;3.13;;;15.30;98.20;;;;;;5052455;28;20071;-57
2022/04/09 08:52:41;;;;;;;8.10;3.10;;;15.40;98.40;;;;;;5051112;28;20128;-57
2022/04/09 08:55:13;;;;;;;9.43;2.95;;;15.60;97.10;;;;;;5052369;28;20021;-57
2022/04/09 08:57:39;;;;;;;9.95;3.28;;;15.00;97.50;;;;;;5052987;28;20213;-56
2022/04/09 09:00:08;;;;;;;10.88;3.22;;;14.30;98.50;;;;;;5052826;28;20070;-57
2022/04/09 09:02:37;;;;;;;7.20;3.10;;;14.70;99.90;;;;;;5052314;28;20537;-57
2022/04/09 09:05:04;;;;;;;6.40;3.03;;;15.10;97.40;;;;;;5051896;28;20024;-57
2022/04/09 09:07:29;;;;;;;12.88;3.13;;;15.20;96.80;;;;;;5051997;28;20519;-57
2022/04/09 09:10:14;;;;;;;9.73;3.20;;;15.60;96.00;;;;;;5051790;28;20108;-57
2022/04/09 09:12:40;;;;;;;7.10;2.83;;;16.20;95.70;;;;;;5051968;28;20032;-57
2022/04/09 09:15:06;;;;;;;7.00;2.38;;;16.50;95.20;;;;;;5052014;28;20021;-57
2022/04/09 09:17:32;;;;;;;8.40;2.22;;;16.10;93.30;;;;;;5051571;28;20028;-57
2022/04/09 09:19:59;;;;;;;8.82;2.92;;;14.40;93.80;;;;;;5052557;28;20108;-57
2022/04/09 09:22:38;;;;;;;6.78;2.92;;;13.20;97.40;;;;;;5052305;28;20066;-56
2022/04/09 09:25:06;;;;;;;10.35;2.70;;;13.40;97.50;;;;;;5052637;28;20115;-56
2022/04/09 09:27:32;;;;;;;4.03;2.25;;;13.40;98.60;;;;;;5051616;28;20057;-57
2022/04/09 09:29:58;;;;;;;7.30;2.20;;;14.10;94.40;;;;;;5051529;28;20127;-57
2022/04/09 09:32:25;;;;;;;6.72;2.60;;;13.90;93.60;;;;;;5051879;28;20378;-57
2022/04/09 09:34:59;;;;;;;8.57;2.63;;;13.20;95.20;;;;;;5052307;28;20178;-57
2022/04/09 09:37:28;;;;;;;6.00;2.50;;;13.60;95.30;;;;;;5051972;28;20035;-57
2022/04/09 09:39:54;;;;;;;7.97;2.35;;;14.10;93.90;;;;;;5050561;28;20027;-57
2022/04/09 09:42:22;;;;;;;11.88;2.78;;;14.40;94.00;;;;;;5051670;28;20052;-57
2022/04/09 09:44:48;;;;;;;11.32;3.53;;;14.70;93.50;;;;;;5050107;28;20029;-57
2022/04/09 09:47:17;;;;;;;9.05;2.90;;;14.30;94.70;;;;;;5051262;28;20033;-57
2022/04/09 09:49:47;;;;;;;7.63;2.78;;;14.80;94.70;;;;;;5051291;28;20029;-57
2022/04/09 09:52:13;;;;;;;7.60;2.90;;;15.20;92.60;;;;;;5051835;28;20025;-57
2022/04/09 09:54:59;;;;;;;6.10;2.83;;;14.70;93.60;;;;;;5051248;28;20028;-57
2022/04/09 09:57:28;;;;;;;10.55;3.05;;;13.90;94.50;;;;;;5051171;28;20031;-57
2022/04/09 09:59:56;;;;;;;7.88;2.80;;;13.70;95.70;;;;;;5051256;28;20033;-57
2022/04/09 10:02:23;;;;;;;8.32;3.08;;;13.10;96.40;;;;;;5052258;28;20021;-57
2022/04/09 10:04:50;;;;;;;6.30;3.47;;;12.30;97.30;;;;;;5052282;28;20040;-55
2022/04/09 10:07:16;;;;;;;9.77;3.50;;;11.50;99.20;;;;;;5053131;28;20393;-57
2022/04/09 10:09:42;;;;;;;5.28;3.30;;;11.50;99.90;;;;;;5062761;28;20052;-57
2022/04/09 10:12:19;;;;;;;7.72;3.10;;;12.00;99.90;;;;;;5060147;28;20036;-57
2022/04/09 10:15:03;;;;;;;7.28;3.17;;;13.00;97.90;;;;;;5051643;28;20036;-57
2022/04/09 10:17:29;;;;;;;6.80;2.90;;;13.60;97.60;;;;;;5050758;28;20513;-57
2022/04/09 10:20:01;;;;;;;6.45;2.80;;;13.90;97.70;;;;;;5049530;28;20078;-57
2022/04/09 10:22:36;;;;;;;;;;;14.80;95.00;;;;;;5051215;28;20500;-57
2022/04/09 10:25:05;;;;;;;4.47;2.30;;;15.30;93.10;;;;;;5051570;28;19904;-57
2022/04/09 10:27:35;;;;;;;6.57;2.75;;;14.10;92.20;;;;;;5051037;28;20017;-57
2022/04/09 10:30:04;;;;;;;8.65;3.42;;;13.70;94.90;;;;;;5050599;28;20028;-57
2022/04/09 10:32:44;;;;;;;7.50;2.97;;;14.40;95.20;;;;;;5052069;28;20415;-58
2022/04/09 10:35:48;;;;;;;8.23;2.97;;;14.50;92.70;;;;;;5051472;28;20098;-58
2022/04/09 10:38:23;;;;;;;7.70;2.72;;;14.00;93.00;;;;;;5052513;28;20025;-57
2022/04/09 10:40:57;;;;;;;8.52;3.20;;;13.40;94.00;;;;;;5051066;28;20024;-57
2022/04/09 10:43:26;;;;;;;8.27;2.95;;;12.90;95.20;;;;;;5050202;28;20431;-57
2022/04/09 10:46:00;;;;;;;7.45;3.60;;;13.40;94.40;;;;;;5051766;28;20029;-57
2022/04/09 10:48:30;;;;;;;5.72;3.30;;;13.70;93.70;;;;;;5050270;28;20083;-57
2022/04/09 10:51:04;;;;;;;5.40;3.20;;;14.10;93.20;;;;;;5050348;28;20052;-57
2022/04/09 10:53:35;;;;;;;7.20;3.70;;;14.60;94.00;;;;;;5049838;28;20025;-56
2022/04/09 10:56:14;;;;;;;6.18;3.45;;;13.70;93.80;;;;;;5050686;28;20078;-56
2022/04/09 10:59:06;;;;;;;7.15;3.78;;;12.80;95.40;;;;;;5051143;28;20025;-56
2022/04/09 11:01:46;;;;;;;6.22;3.75;;;12.20;95.40;;;;;;5051029;28;20021;-56
2022/04/09 11:04:36;;;;;;;7.78;3.90;;;13.10;95.70;;;;;;5051702;28;20490;-56
2022/04/09 11:07:02;;;;;;;8.77;3.83;;;13.70;94.70;;;;;;5051726;28;20504;-56
2022/04/09 11:09:54;;;;;;;6.32;3.47;;;13.50;94.60;;;;;;5051155;28;20029;-56
2022/04/09 11:12:37;;;;;;;5.38;2.60;;;14.10;92.80;;;;;;5050483;28;20033;-56
2022/04/09 11:15:11;;;;;;;5.35;2.60;;;15.00;90.40;;;;;;5049896;28;20024;-57
2022/04/09 11:17:38;;;;;;;4.75;2.65;;;15.70;90.50;;;;;;5049848;28;20021;-57
2022/04/09 11:20:11;;;;;;;5.43;2.15;;;16.60;86.50;;;;;;5048495;28;20032;-57
2022/04/09 11:22:40;;;;;;;;;;;15.70;85.30;;;;;;5050136;28;20041;-56
2022/04/09 11:25:08;;;;;;;6.25;1.83;;;14.90;88.30;;;;;;5049609;28;19993;-56
2022/04/09 11:27:34;;;;;;;3.58;1.50;;;15.50;87.10;;;;;;5050822;28;20396;-56
2022/04/09 11:30:01;;;;;;;6.38;1.90;;;15.10;82.80;;;;;;5050007;28;20051;-57
2022/04/09 11:32:27;;;;;;;5.68;1.60;;;16.00;83.40;;;;;;5049677;28;20027;-56
2022/04/09 11:34:58;;;;;;;2.70;1.52;;;16.20;85.60;;;;;;5049491;28;20028;-56
2022/04/09 11:37:27;;;;;;;5.38;1.55;;;15.20;81.70;;;;;;5049201;28;20025;-56
2022/04/09 11:39:53;;;;;;;5.13;1.60;;;14.50;85.50;;;;;;5049596;28;20472;-56
2022/04/09 11:42:19;;;;;;;5.32;1.92;;;14.60;85.10;;;;;;5052714;28;20103;-56
2022/04/09 11:44:45;;;;;;;9.05;2.05;;;15.10;85.20;;;;;;5053790;28;20037;-56
2022/04/09 11:47:17;;;;;;;3.47;1.40;;;15.00;87.50;;;;;;5053746;28;20035;-56
2022/04/09 11:49:48;;;;;;;5.13;1.40;;;14.20;84.00;;;;;;5054644;28;20036;-56
2022/04/09 11:52:27;;;;;;;4.32;1.60;;;13.80;85.30;;;;;;5055298;28;20033;-56
2022/04/09 11:54:54;;;;;;;2.78;1.38;;;14.40;83.30;;;;;;5053428;28;20036;-56
2022/04/09 11:57:19;;;;;;;3.72;1.40;;;15.70;82.60;;;;;;5053430;28;20123;-56
2022/04/09 11:59:52;;;;;;;4.88;1.70;;;16.00;79.80;;;;;;5053188;28;20033;-56
2022/04/09 12:02:25;;;;;;;5.10;1.42;;;16.60;74.60;;;;;;5053352;28;20021;-57
2022/04/09 12:04:53;;;;;;;3.22;1.60;;;16.70;73.30;;;;;;5053080;28;20497;-56
2022/04/09 12:07:19;;;;;;;4.75;1.77;;;16.00;72.30;;;;;;5053044;28;20029;-56
2022/04/09 12:09:45;;;;;;;3.17;1.67;;;16.60;75.20;;;;;;5052278;28;20025;-56
2022/04/09 12:12:11;;;;;;;6.13;1.52;;;16.60;75.70;;;;;;5053312;28;20095;-56
2022/04/09 12:14:39;;;;;;;5.47;1.65;;;16.50;77.00;;;;;;5051670;28;20025;-56
2022/04/09 12:17:13;;;;;;;4.55;1.70;;;16.50;76.10;;;;;;5053227;28;20036;-56
2022/04/09 12:19:43;;;;;;;5.28;1.70;;;15.70;75.60;;;;;;5052950;28;20025;-57
2022/04/09 12:22:21;;;;;;;3.13;1.48;;;15.80;76.20;;;;;;5051597;28;20056;-56
2022/04/09 12:24:56;;;;;;;5.13;1.90;;;16.40;76.20;;;;;;5052978;28;20025;-56
2022/04/09 12:27:45;;;;;;;4.15;1.67;;;16.30;74.90;;;;;;5052767;28;20506;-57
2022/04/09 12:30:13;;;;;;;3.67;1.50;;;17.00;71.40;;;;;;5084840;28;20033;-57
2022/04/09 12:32:41;;;;;;;6.15;1.83;;;17.50;69.90;;;;;;5052824;28;20029;-57
2022/04/09 12:35:11;;;;;;;4.15;1.88;;;17.70;70.10;;;;;;5052923;28;20017;-57
2022/04/09 12:37:48;;;;;;;4.13;1.50;;;17.50;70.00;;;;;;5052769;28;20044;-56
2022/04/09 12:40:22;;;;;;;4.25;1.60;;;18.40;70.00;;;;;;5052835;28;20025;-56
2022/04/09 12:42:48;;;;;;;3.70;1.58;;;17.90;69.20;;;;;;5053397;28;20074;-56
2022/04/09 12:45:16;;;;;;;4.13;1.50;;;17.80;67.70;;;;;;5052286;28;20537;-56
2022/04/09 12:47:52;;;;;;;4.57;1.88;;;17.30;70.70;;;;;;5052460;28;20024;-56
2022/04/09 12:50:20;;;;;;;2.47;1.30;;;16.60;70.70;;;;;;5051334;28;20028;-56